Time;durP1;ratioP1;P1;durP2;ratioP2;P2;SDS_P1;SDS_P2;PMS_P1;PMS_P2;Temp;Humidity;BMP_temperature;BMP_pressure;BME280_temperature;BME280_humidity;BME280_pressure;Samples;Min_cycle;Max_cycle;Signal;HPM_P1;HPM_P2
2021/01/28 00:02:13;;;;;;;51.10;22.20;;;;;;;5.66;nan;99603.13;5082282;28;20990;-63
2021/01/28 00:04:39;;;;;;;47.03;20.97;;;;;;;5.54;nan;99620.00;5064135;28;20453;-62
2021/01/28 00:07:05;;;;;;;48.40;21.33;;;;;;;5.62;nan;99629.06;5062638;28;20480;-63
2021/01/28 00:09:31;;;;;;;49.40;22.87;;;;;;;5.60;nan;99623.00;5082824;28;20444;-63
2021/01/28 00:11:57;;;;;;;49.73;20.73;;;;;;;5.68;nan;99613.56;5082759;28;20506;-63
2021/01/28 00:14:24;;;;;;;53.10;21.43;;;;;;;5.66;nan;99611.06;5080273;28;20456;-63
2021/01/28 00:16:50;;;;;;;48.70;21.90;;;;;;;5.69;nan;99602.00;5082853;28;20475;-63
2021/01/28 00:19:17;;;;;;;51.63;19.27;;;;;;;5.71;nan;99602.72;5067412;28;20497;-62
2021/01/28 00:21:43;;;;;;;44.37;19.63;;;;;;;5.78;nan;99599.47;5078681;28;20484;-63
2021/01/28 00:24:10;;;;;;;52.33;20.70;;;;;;;5.77;nan;99597.75;5064562;28;20460;-63
2021/01/28 00:26:36;;;;;;;51.10;21.50;;;;;;;5.65;nan;99604.09;5064233;28;20488;-63
2021/01/28 00:29:03;;;;;;;52.00;20.97;;;;;;;5.70;nan;99601.06;5082804;28;20452;-63
2021/01/28 00:31:30;;;;;;;50.93;20.03;;;;;;;5.66;nan;99603.97;5075189;28;21157;-63
2021/01/28 00:33:56;;;;;;;48.20;20.23;;;;;;;5.68;nan;99597.66;5062847;28;20456;-63
2021/01/28 00:36:22;;;;;;;56.20;21.67;;;;;;;5.91;nan;99593.16;5062648;28;20599;-62
2021/01/28 00:38:49;;;;;;;51.37;21.57;;;;;;;5.74;nan;99591.88;5063468;28;20907;-63
2021/01/28 00:41:15;;;;;;;48.87;20.83;;;;;;;5.88;nan;99599.53;5066029;28;20495;-63
2021/01/28 00:43:41;;;;;;;48.77;21.17;;;;;;;5.72;nan;99584.03;5082329;28;20455;-63
2021/01/28 00:46:08;;;;;;;49.40;19.37;;;;;;;5.87;nan;99591.69;5072754;28;20496;-63
2021/01/28 00:48:35;;;;;;;43.13;19.47;;;;;;;5.77;nan;99579.19;5063159;28;20418;-63
2021/01/28 00:51:03;;;;;;;43.40;19.07;;;;;;;5.89;nan;99577.34;5068756;28;20464;-63
2021/01/28 00:53:29;;;;;;;44.63;19.10;;;;;;;5.82;nan;99571.72;5082782;28;20452;-63
2021/01/28 00:55:56;;;;;;;41.83;20.40;;;;;;;5.84;nan;99574.22;5075391;28;20483;-63
2021/01/28 00:58:24;;;;;;;42.13;19.27;;;;;;;5.77;nan;99571.25;5062871;28;20433;-63
2021/01/28 01:00:50;;;;;;;46.63;21.30;;;;;;;5.75;nan;99573.19;5078898;28;20471;-63
2021/01/28 01:03:19;;;;;;;44.30;19.20;;;;;;;5.71;nan;99576.22;5082169;28;20473;-63
2021/01/28 01:05:47;;;;;;;45.43;19.13;;;;;;;5.68;nan;99576.44;5065586;28;21051;-63
2021/01/28 01:08:16;;;;;;;44.47;18.57;;;;;;;5.64;nan;99571.44;5072602;28;20447;-63
2021/01/28 01:10:44;;;;;;;44.83;20.03;;;;;;;5.75;nan;99575.00;5082549;28;20468;-63
2021/01/28 01:13:13;;;;;;;38.50;19.17;;;;;;;5.84;nan;99571.59;5071103;28;20477;-63
2021/01/28 01:15:39;;;;;;;42.93;19.60;;;;;;;5.66;nan;99571.31;5061850;28;20484;-63
2021/01/28 01:18:06;;;;;;;46.70;19.27;;;;;;;5.77;nan;99573.06;5071619;28;20452;-63
2021/01/28 01:20:33;;;;;;;44.67;18.03;;;;;;;5.72;nan;99575.25;5079914;28;20460;-64
2021/01/28 01:23:00;;;;;;;44.40;20.07;;;;;;;5.75;nan;99569.69;5081437;28;20452;-63
2021/01/28 01:25:26;;;;;;;44.90;20.50;;;;;;;5.74;nan;99560.03;5081400;28;20467;-64
2021/01/28 01:27:52;;;;;;;44.83;19.57;;;;;;;5.69;nan;99560.41;5075983;28;21049;-63
2021/01/28 01:30:22;;;;;;;48.70;20.40;;;;;;;5.72;nan;99562.81;5061265;28;20472;-63
2021/01/28 01:32:48;;;;;;;45.30;19.80;;;;;;;5.66;nan;99558.88;5080281;28;20747;-64
2021/01/28 01:35:15;;;;;;;44.73;19.87;;;;;;;5.80;nan;99549.78;5079877;28;20456;-63
2021/01/28 01:37:42;;;;;;;41.97;18.30;;;;;;;5.89;nan;99553.47;5072057;28;20475;-63
2021/01/28 01:40:13;;;;;;;36.53;19.37;;;;;;;5.85;nan;99550.25;5080984;28;20452;-63
2021/01/28 01:42:40;;;;;;;48.90;21.20;;;;;;;5.85;nan;99546.75;5061271;28;20460;-63
2021/01/28 01:45:09;;;;;;;44.43;19.43;;;;;;;5.85;nan;99531.66;5061101;28;20488;-63
2021/01/28 01:47:41;;;;;;;48.27;20.37;;;;;;;5.92;nan;99518.72;5081072;28;20475;-63
2021/01/28 01:50:17;;;;;;;51.47;19.63;;;;;;;5.75;nan;99519.31;5069082;28;20441;-62
2021/01/28 01:52:43;;;;;;;49.93;21.33;;;;;;;5.74;nan;99520.25;5061200;28;20440;-64
2021/01/28 01:55:11;;;;;;;46.53;21.37;;;;;;;5.89;nan;99508.38;5072721;28;20513;-63
2021/01/28 01:57:38;;;;;;;46.83;22.33;;;;;;;5.99;nan;99513.78;5082097;28;20428;-63
2021/01/28 02:00:08;;;;;;;51.73;20.67;;;;;;;5.90;nan;99504.72;5069908;28;20937;-64
2021/01/28 02:02:36;;;;;;;47.60;20.60;;;;;;;5.97;nan;99500.66;5061710;28;20483;-63
2021/01/28 02:05:10;;;;;;;50.37;21.93;;;;;;;5.99;nan;99493.41;5075102;28;20456;-64
2021/01/28 02:07:36;;;;;;;52.17;21.70;;;;;;;5.95;nan;99510.50;5080851;28;21005;-63
2021/01/28 02:10:05;;;;;;;56.40;23.03;;;;;;;6.00;nan;99504.84;5068575;28;20464;-63
2021/01/28 02:12:32;;;;;;;45.33;20.70;;;;;;;5.89;nan;99494.28;5043489;28;20480;-64
2021/01/28 02:14:58;;;;;;;50.20;20.90;;;;;;;5.94;nan;99492.91;5059491;28;20457;-64
2021/01/28 02:17:25;;;;;;;44.87;21.40;;;;;;;5.93;nan;99493.88;5063583;28;21291;-64
2021/01/28 02:20:04;;;;;;;52.80;22.97;;;;;;;5.97;nan;99498.00;5081477;28;20451;-63
2021/01/28 02:22:37;;;;;;;49.33;21.70;;;;;;;5.99;nan;99485.44;5076298;28;20495;-63
2021/01/28 02:25:13;;;;;;;47.30;21.00;;;;;;;5.85;nan;99480.44;5070411;28;20448;-63
2021/01/28 02:27:41;;;;;;;49.50;22.27;;;;;;;5.93;nan;99482.44;5060809;28;20437;-63
2021/01/28 02:30:08;;;;;;;56.97;21.60;;;;;;;6.01;nan;99482.66;5059662;28;20468;-64
2021/01/28 02:32:35;;;;;;;46.07;19.57;;;;;;;6.08;nan;99480.31;5061088;28;20496;-64
2021/01/28 02:35:01;;;;;;;52.63;20.70;;;;;;;6.14;nan;99466.53;5051874;28;20486;-64
2021/01/28 02:37:28;;;;;;;47.97;20.80;;;;;;;6.10;nan;99468.59;5039925;28;20469;-64
2021/01/28 02:39:54;;;;;;;48.30;20.73;;;;;;;6.05;nan;99462.84;5046987;28;20460;-64
2021/01/28 02:42:24;;;;;;;63.97;24.17;;;;;;;6.01;nan;99470.22;5059408;28;20480;-64
2021/01/28 02:44:50;;;;;;;59.27;22.60;;;;;;;5.92;nan;99467.47;5060542;28;20473;-64
2021/01/28 02:47:16;;;;;;;48.17;21.47;;;;;;;5.92;nan;99462.16;5060141;28;20472;-61
2021/01/28 02:52:27;;;;;;;50.43;22.00;;;;;;;5.97;nan;99460.84;5040003;28;20523;-62
2021/01/28 02:54:54;;;;;;;53.60;21.57;;;;;;;5.97;nan;99457.34;5053974;28;20460;-62
2021/01/28 02:57:21;;;;;;;60.90;22.13;;;;;;;6.00;nan;99465.88;5060260;28;20523;-64
2021/01/28 02:59:48;;;;;;;53.33;21.73;;;;;;;6.06;nan;99475.16;5061004;28;20436;-62
2021/01/28 03:02:17;;;;;;;61.40;24.50;;;;;;;6.05;nan;99473.44;5042226;28;20470;-63
2021/01/28 03:04:43;;;;;;;45.00;19.53;;;;;;;6.02;nan;99463.97;5055088;28;20991;-63
2021/01/28 03:07:11;;;;;;;43.07;19.03;;;;;;;5.95;nan;99456.59;5059686;28;20477;-62
2021/01/28 03:09:37;;;;;;;44.67;17.53;;;;;;;6.00;nan;99465.03;5060529;28;20433;-62
2021/01/28 03:12:04;;;;;;;41.63;17.50;;;;;;;5.99;nan;99458.91;5059431;28;20476;-63
2021/01/28 03:14:31;;;;;;;41.50;16.90;;;;;;;5.89;nan;99447.34;5060978;28;20442;-63
2021/01/28 03:16:57;;;;;;;38.43;15.53;;;;;;;6.07;nan;99454.75;5048443;28;20481;-63
2021/01/28 03:19:24;;;;;;;36.17;15.70;;;;;;;6.03;nan;99449.69;5060226;28;20437;-62
2021/01/28 03:21:50;;;;;;;34.67;14.53;;;;;;;5.89;nan;99457.13;5057091;28;20489;-63
2021/01/28 03:24:16;;;;;;;33.67;15.23;;;;;;;5.88;nan;99447.47;5040997;28;20446;-63
2021/01/28 03:26:43;;;;;;;27.47;13.70;;;;;;;5.85;nan;99445.94;5043526;28;20486;-63
2021/01/28 03:29:11;;;;;;;24.60;12.70;;;;;;;5.86;nan;99442.31;5044939;28;20528;-63
2021/01/28 03:31:39;;;;;;;27.67;11.23;;;;;;;5.80;nan;99438.38;5048085;28;20961;-63
2021/01/28 03:34:06;;;;;;;24.27;11.67;;;;;;;5.91;nan;99437.44;5061620;28;20492;-63
2021/01/28 03:36:32;;;;;;;19.17;10.17;;;;;;;5.82;nan;99435.59;5045327;28;20488;-63
2021/01/28 03:38:58;;;;;;;24.77;10.93;;;;;;;5.78;nan;99432.38;5064101;28;20457;-63
2021/01/28 03:41:24;;;;;;;20.30;9.60;;;;;;;5.78;nan;99435.00;5048075;28;20508;-63
2021/01/28 03:43:51;;;;;;;19.10;8.67;;;;;;;5.73;nan;99441.66;5043807;28;20503;-63
2021/01/28 03:46:17;;;;;;;21.20;10.17;;;;;;;5.82;nan;99428.47;5056078;28;20809;-63
2021/01/28 03:48:44;;;;;;;13.87;7.87;;;;;;;5.76;nan;99426.31;5064095;28;20457;-63
2021/01/28 03:51:10;;;;;;;18.37;9.30;;;;;;;5.77;nan;99419.22;5062193;28;20496;-63
2021/01/28 03:53:36;;;;;;;15.30;8.30;;;;;;;5.70;nan;99426.84;5063621;28;20452;-63
2021/01/28 03:56:02;;;;;;;17.10;7.80;;;;;;;5.68;nan;99423.50;5054362;28;20988;-63
2021/01/28 03:58:29;;;;;;;14.57;6.93;;;;;;;5.68;nan;99435.91;5044096;28;20438;-63
2021/01/28 04:00:55;;;;;;;11.07;6.20;;;;;;;5.57;nan;99437.66;5055740;28;20992;-63
2021/01/28 04:03:21;;;;;;;13.03;5.60;;;;;;;5.69;nan;99429.63;5063851;28;20819;-63
2021/01/28 04:05:48;;;;;;;10.27;6.30;;;;;;;5.60;nan;99433.91;5062203;28;20496;-63
2021/01/28 04:08:15;;;;;;;11.67;5.93;;;;;;;5.60;nan;99425.94;5063256;28;20535;-63
2021/01/28 04:10:41;;;;;;;13.63;6.57;;;;;;;5.57;nan;99415.59;5057841;28;20932;-63
2021/01/28 04:13:08;;;;;;;8.93;5.87;;;;;;;5.58;nan;99409.34;5044713;28;20453;-63
2021/01/28 04:15:34;;;;;;;12.03;5.40;;;;;;;5.49;nan;99403.00;5062776;28;20477;-63
2021/01/28 04:18:01;;;;;;;9.10;5.77;;;;;;;5.50;nan;99402.00;5063319;28;20429;-64
2021/01/28 04:20:29;;;;;;;9.43;5.47;;;;;;;5.68;nan;99386.38;5065669;28;20480;-63
2021/01/28 04:22:56;;;;;;;8.23;5.57;;;;;;;5.75;nan;99381.38;5079737;28;20505;-63
2021/01/28 04:25:23;;;;;;;8.77;5.00;;;;;;;5.74;nan;99383.19;5078774;28;20463;-63
2021/01/28 04:27:49;;;;;;;10.50;6.03;;;;;;;5.66;nan;99394.44;5062209;28;20441;-64
2021/01/28 04:30:19;;;;;;;12.37;6.50;;;;;;;5.74;nan;99388.47;5062726;28;20429;-63
2021/01/28 04:32:45;;;;;;;12.90;5.77;;;;;;;5.68;nan;99383.72;5063220;28;20498;-63
2021/01/28 04:35:12;;;;;;;13.00;6.80;;;;;;;5.57;nan;99379.34;5063024;28;20448;-63
2021/01/28 04:37:38;;;;;;;11.30;6.20;;;;;;;5.69;nan;99369.47;5078048;28;20460;-63
2021/01/28 04:40:08;;;;;;;10.43;5.67;;;;;;;5.72;nan;99374.53;5062446;28;20488;-63
2021/01/28 04:45:27;;;;;;;7.73;5.17;;;;;;;5.68;nan;99359.00;5061784;28;20776;-64
2021/01/28 04:47:56;;;;;;;11.03;6.50;;;;;;;5.66;nan;99359.16;5063094;28;20429;-64
2021/01/28 04:50:26;;;;;;;12.80;5.57;;;;;;;5.61;nan;99364.00;5062981;28;20481;-63
2021/01/28 04:52:55;;;;;;;8.57;6.10;;;;;;;5.51;nan;99353.31;5061929;28;20461;-63
2021/01/28 04:55:29;;;;;;;10.43;5.80;;;;;;;5.57;nan;99362.56;5060180;28;21028;-64
2021/01/28 04:57:55;;;;;;;11.73;6.87;;;;;;;5.55;nan;99351.25;5043006;28;20441;-64
2021/01/28 05:00:22;;;;;;;9.27;6.10;;;;;;;5.53;nan;99358.50;5042078;28;20481;-63
2021/01/28 05:02:50;;;;;;;10.97;5.93;;;;;;;5.59;nan;99350.00;5062454;28;20445;-63
2021/01/28 05:05:16;;;;;;;13.80;6.17;;;;;;;5.61;nan;99356.06;5061409;28;20460;-64
2021/01/28 05:07:42;;;;;;;11.27;6.80;;;;;;;5.68;nan;99354.56;5061707;28;20457;-64
2021/01/28 05:10:12;;;;;;;8.93;6.00;;;;;;;5.71;nan;99356.94;5052418;28;20508;-65
2021/01/28 05:12:40;;;;;;;10.93;6.23;;;;;;;5.68;nan;99343.09;5061722;28;20453;-63
2021/01/28 05:15:19;;;;;;;9.13;5.57;;;;;;;5.60;nan;99346.41;5061572;28;20441;-64
2021/01/28 05:17:56;;;;;;;10.30;5.83;;;;;;;5.59;nan;99347.38;5044961;28;20453;-64
2021/01/28 05:20:24;;;;;;;11.23;7.00;;;;;;;5.56;nan;99347.66;5052020;28;21236;-64
2021/01/28 05:22:58;;;;;;;10.83;7.57;;;;;;;5.65;nan;99347.69;5061886;28;20452;-64
2021/01/28 05:25:33;;;;;;;11.70;6.50;;;;;;;5.82;nan;99348.88;5061063;28;20834;-64
2021/01/28 05:28:16;;;;;;;9.53;5.80;;;;;;;5.67;nan;99350.19;5061902;28;21057;-64
2021/01/28 05:30:44;;;;;;;10.40;6.03;;;;;;;5.57;nan;99344.88;5060962;28;20465;-64
2021/01/28 05:33:29;;;;;;;10.87;6.90;;;;;;;5.62;nan;99340.00;5061619;28;20453;-64
2021/01/28 05:36:05;;;;;;;12.63;7.50;;;;;;;5.64;nan;99326.59;5053677;28;20880;-63
2021/01/28 05:38:35;;;;;;;11.07;7.20;;;;;;;5.65;nan;99317.69;5046523;28;20444;-64
2021/01/28 05:41:01;;;;;;;14.47;7.10;;;;;;;5.70;nan;99309.34;5051295;28;20486;-64
2021/01/28 05:43:34;;;;;;;14.83;7.37;;;;;;;5.65;nan;99299.94;5040904;28;20458;-64
2021/01/28 05:46:17;;;;;;;13.50;7.50;;;;;;;5.68;nan;99301.50;5052143;28;20487;-64
2021/01/28 05:48:44;;;;;;;9.40;6.77;;;;;;;5.68;nan;99293.56;5059942;28;20514;-64
2021/01/28 05:51:15;;;;;;;15.80;8.53;;;;;;;5.54;nan;99292.09;5069657;28;20478;-64
2021/01/28 05:53:44;;;;;;;14.53;7.53;;;;;;;5.52;nan;99288.75;5081576;28;20805;-64
2021/01/28 05:56:16;;;;;;;12.33;7.63;;;;;;;5.62;nan;99278.16;5065767;28;20553;-64
2021/01/28 05:58:49;;;;;;;11.83;8.57;;;;;;;5.66;nan;99264.50;5041866;28;20456;-64
2021/01/28 06:01:25;;;;;;;13.43;7.70;;;;;;;5.42;nan;99259.53;5045522;28;20488;-64
2021/01/28 06:11:10;;;;;;;11.93;6.07;;;;;;;5.31;nan;99237.56;5047770;28;20514;-64
2021/01/28 06:14:04;;;;;;;9.60;5.43;;;;;;;5.22;nan;99237.38;4979518;28;20456;-63
2021/01/28 06:16:34;;;;;;;13.23;6.27;;;;;;;5.12;nan;99220.59;4959843;29;20477;-64
2021/01/28 06:19:40;;;;;;;22.33;7.47;;;;;;;5.02;nan;99220.53;4969124;28;21021;-64
2021/01/28 06:22:12;;;;;;;15.00;8.03;;;;;;;5.03;nan;99216.91;4897410;29;20512;-64
2021/01/28 06:24:53;;;;;;;11.30;6.50;;;;;;;5.05;nan;99219.44;4900907;29;20464;-64
2021/01/28 06:27:36;;;;;;;7.47;4.63;;;;;;;4.82;nan;99216.91;4919143;29;20479;-64
2021/01/28 06:30:21;;;;;;;7.33;3.50;;;;;;;4.65;nan;99210.41;4921013;29;20458;-63
2021/01/28 06:33:10;;;;;;;5.93;4.33;;;;;;;4.77;nan;99210.34;4919435;29;20467;-64
2021/01/28 06:35:47;;;;;;;4.30;3.60;;;;;;;4.86;nan;99210.41;4919964;29;20482;-64
2021/01/28 06:38:36;;;;;;;7.23;4.03;;;;;;;4.74;nan;99208.81;4921310;29;20534;-64
2021/01/28 06:41:08;;;;;;;6.03;4.23;;;;;;;4.75;nan;99223.69;4919078;29;20527;-64
2021/01/28 06:43:43;;;;;;;5.90;4.57;;;;;;;4.85;nan;99218.47;4919971;29;20458;-64
2021/01/28 06:46:29;;;;;;;7.30;5.57;;;;;;;4.77;nan;99208.53;4920492;29;20514;-62
2021/01/28 06:49:14;;;;;;;10.70;5.50;;;;;;;4.82;nan;99200.19;4920627;29;20455;-62
2021/01/28 06:51:48;;;;;;;11.90;5.17;;;;;;;4.72;nan;99193.03;4964492;28;20522;-62
2021/01/28 06:54:21;;;;;;;10.40;5.63;;;;;;;4.74;nan;99195.56;4958779;29;20497;-63
2021/01/28 06:56:53;;;;;;;7.10;5.30;;;;;;;4.75;nan;99191.94;5019313;28;20564;-64
2021/01/28 06:59:26;;;;;;;9.07;5.50;;;;;;;4.91;nan;99191.47;5039885;28;20796;-66
2021/01/28 07:01:58;;;;;;;9.90;5.10;;;;;;;4.74;nan;99189.41;5041316;28;20484;-63
2021/01/28 07:04:28;;;;;;;9.67;6.00;;;;;;;4.75;nan;99186.63;5047502;28;20869;-64
2021/01/28 07:07:03;;;;;;;8.70;5.27;;;;;;;4.66;nan;99188.25;5062461;28;20502;-64
2021/01/28 07:09:32;;;;;;;13.73;6.03;;;;;;;4.69;nan;99182.69;5062887;28;20467;-64
2021/01/28 07:12:02;;;;;;;7.43;5.30;;;;;;;4.71;nan;99179.94;5062727;28;20526;-64
2021/01/28 07:14:28;;;;;;;7.20;5.27;;;;;;;4.64;nan;99173.47;5063435;28;20453;-64
2021/01/28 07:17:01;;;;;;;9.93;6.43;;;;;;;4.77;nan;99173.25;5062041;28;20477;-63
2021/01/28 07:19:30;;;;;;;9.90;6.03;;;;;;;4.86;nan;99157.44;5063692;28;20459;-66
2021/01/28 07:21:57;;;;;;;12.17;6.90;;;;;;;4.78;nan;99162.53;5062018;28;20480;-65
2021/01/28 07:24:33;;;;;;;16.00;8.60;;;;;;;4.79;nan;99158.94;5063271;28;20448;-63
2021/01/28 07:27:01;;;;;;;12.10;7.90;;;;;;;4.93;nan;99149.81;5062762;28;20484;-67
2021/01/28 07:29:56;;;;;;;15.60;8.70;;;;;;;4.80;nan;99151.84;5044353;28;20457;-63
2021/01/28 07:32:52;;;;;;;13.07;7.73;;;;;;;4.72;nan;99148.03;5057578;28;20557;-66
2021/01/28 07:35:47;;;;;;;10.23;8.07;;;;;;;4.66;nan;99148.53;5061761;28;20465;-65
2021/01/28 07:38:41;;;;;;;13.73;8.43;;;;;;;4.76;nan;99135.38;5056459;28;20452;-63
2021/01/28 07:41:19;;;;;;;13.77;8.30;;;;;;;4.65;nan;99133.63;5040932;28;20481;-64
2021/01/28 07:43:47;;;;;;;11.20;8.23;;;;;;;4.75;nan;99143.44;5041539;28;20449;-63
2021/01/28 07:46:17;;;;;;;14.30;7.90;;;;;;;4.67;nan;99129.03;5040954;28;20505;-65
2021/01/28 07:48:45;;;;;;;14.10;8.13;;;;;;;4.53;nan;99132.88;5042783;28;20450;-64
2021/01/28 07:51:33;;;;;;;10.60;8.33;;;;;;;4.48;nan;99131.59;5050891;28;20837;-63
2021/01/28 07:53:59;;;;;;;13.20;8.10;;;;;;;4.63;nan;99135.56;5044791;28;20845;-64
2021/01/28 08:00:04;;;;;;;14.30;7.67;;;;;;;4.60;nan;99137.63;5047478;28;20466;-63
2021/01/28 08:02:32;;;;;;;13.67;8.53;;;;;;;4.70;nan;99135.88;5051970;28;20488;-63
2021/01/28 08:05:09;;;;;;;18.73;9.97;;;;;;;4.63;nan;99132.91;5052267;28;20485;-64
2021/01/28 08:07:38;;;;;;;11.07;8.10;;;;;;;4.78;nan;99125.47;5049920;28;20498;-66
2021/01/28 08:10:08;;;;;;;13.20;7.03;;;;;;;4.76;nan;99116.84;5052294;28;20666;-63
2021/01/28 08:12:38;;;;;;;18.60;8.87;;;;;;;4.93;nan;99117.19;5049678;28;20441;-63
2021/01/28 08:18:18;;;;;;;17.87;8.57;;;;;;;4.76;nan;99095.66;5050112;28;20452;-66
2021/01/28 08:20:46;;;;;;;11.40;8.07;;;;;;;4.76;nan;99105.41;5052774;28;20519;-69
2021/01/28 08:23:16;;;;;;;13.50;8.20;;;;;;;4.69;nan;99097.97;5051591;28;21031;-71
2021/01/28 08:25:52;;;;;;;12.00;7.70;;;;;;;4.78;nan;99090.22;5052412;28;20469;-64
2021/01/28 08:28:18;;;;;;;21.87;9.17;;;;;;;4.66;nan;99090.28;5050248;28;20452;-64
2021/01/28 08:30:45;;;;;;;12.93;7.90;;;;;;;4.66;nan;99092.94;5050054;28;20469;-65
2021/01/28 08:33:21;;;;;;;14.40;8.00;;;;;;;4.65;nan;99090.41;5052507;28;20441;-65
2021/01/28 08:35:51;;;;;;;19.17;7.87;;;;;;;4.78;nan;99085.75;5052135;28;20547;-65
2021/01/28 08:38:21;;;;;;;13.90;7.50;;;;;;;4.50;nan;99069.59;5049240;28;20482;-66
2021/01/28 08:40:59;;;;;;;12.90;8.17;;;;;;;4.41;nan;99066.88;5048694;28;20473;-65
2021/01/28 08:43:25;;;;;;;15.47;8.63;;;;;;;4.53;nan;99049.94;5053371;28;20452;-65
2021/01/28 08:46:03;;;;;;;16.53;8.77;;;;;;;4.48;nan;99049.53;5050919;28;20501;-65
2021/01/28 08:48:29;;;;;;;13.43;8.07;;;;;;;4.52;nan;99040.34;5053193;28;20451;-65
2021/01/28 08:51:04;;;;;;;15.10;8.60;;;;;;;4.50;nan;99039.66;5053633;28;20468;-63
2021/01/28 08:53:30;;;;;;;17.03;9.60;;;;;;;4.45;nan;99028.63;5042274;28;20453;-62
2021/01/28 08:56:05;;;;;;;16.33;9.17;;;;;;;4.47;nan;99034.63;5043976;28;20487;-63
2021/01/28 08:58:33;;;;;;;20.73;10.33;;;;;;;4.52;nan;99030.59;5049459;28;20459;-62
2021/01/28 09:01:01;;;;;;;20.63;11.30;;;;;;;4.58;nan;99033.69;5047049;28;20983;-63
2021/01/28 09:03:31;;;;;;;19.70;10.30;;;;;;;4.37;nan;99021.31;5040658;28;20449;-62
2021/01/28 09:05:59;;;;;;;19.57;9.63;;;;;;;4.40;nan;99015.78;5055733;28;20480;-62
2021/01/28 09:08:33;;;;;;;16.67;9.43;;;;;;;4.45;nan;99012.75;5056524;28;20460;-62
2021/01/28 09:11:14;;;;;;;16.67;9.27;;;;;;;4.48;nan;99015.13;5040611;28;20477;-63
2021/01/28 09:13:41;;;;;;;16.00;9.50;;;;;;;4.42;nan;99002.41;5047179;28;20504;-63
2021/01/28 09:16:10;;;;;;;15.40;9.70;;;;;;;4.32;nan;99005.00;5050254;28;20464;-64
2021/01/28 09:18:39;;;;;;;14.90;8.93;;;;;;;4.49;nan;99000.91;5060391;28;20456;-62
2021/01/28 09:21:08;;;;;;;16.10;10.07;;;;;;;4.49;nan;99004.38;5041229;28;20841;-63
2021/01/28 09:23:35;;;;;;;21.60;10.93;;;;;;;4.58;nan;98999.28;5055358;28;20446;-63
2021/01/28 09:26:10;;;;;;;17.20;9.37;;;;;;;4.60;nan;99002.63;5044115;28;20558;-62
2021/01/28 09:28:37;;;;;;;23.50;11.67;;;;;;;4.65;nan;98988.03;5059875;28;20444;-62
2021/01/28 09:34:14;;;;;;;19.97;10.50;;;;;;;4.40;nan;98981.38;5051664;28;20452;-62
2021/01/28 09:36:41;;;;;;;16.70;10.50;;;;;;;4.62;nan;98979.53;5057357;28;20565;-64
2021/01/28 09:39:13;;;;;;;17.07;10.43;;;;;;;4.56;nan;98972.94;5048838;28;20451;-67
2021/01/28 09:41:42;;;;;;;17.63;10.13;;;;;;;4.40;nan;98984.03;5047179;28;20480;-63
2021/01/28 09:44:34;;;;;;;17.40;10.20;;;;;;;4.35;nan;98986.22;5049298;28;20967;-64
2021/01/28 09:47:17;;;;;;;15.50;9.00;;;;;;;4.62;nan;98967.13;5052091;28;20567;-64
2021/01/28 09:49:45;;;;;;;18.20;10.33;;;;;;;4.56;nan;98966.81;5050351;28;20458;-64
2021/01/28 09:52:17;;;;;;;16.50;10.20;;;;;;;4.42;nan;98968.00;5047286;28;20491;-63
2021/01/28 09:54:44;;;;;;;17.20;9.63;;;;;;;4.46;nan;98967.63;5051038;28;20452;-63
2021/01/28 09:57:11;;;;;;;16.37;10.00;;;;;;;4.51;nan;98965.41;5050329;28;21155;-62
2021/01/28 09:59:37;;;;;;;18.80;10.03;;;;;;;4.40;nan;98962.84;5052008;28;20445;-63
2021/01/28 10:02:03;;;;;;;17.40;9.53;;;;;;;4.41;nan;98953.94;5052066;28;20512;-63
2021/01/28 10:04:30;;;;;;;15.70;8.77;;;;;;;4.50;nan;98963.72;5051490;28;20477;-63
2021/01/28 10:06:56;;;;;;;17.70;8.97;;;;;;;4.41;nan;98951.31;5044817;28;20479;-64
2021/01/28 10:09:22;;;;;;;15.93;9.10;;;;;;;4.48;nan;98954.25;5049832;28;20461;-62
2021/01/28 10:11:49;;;;;;;15.80;9.07;;;;;;;4.46;nan;98946.44;5044113;28;20481;-62
2021/01/28 10:14:16;;;;;;;14.80;8.13;;;;;;;4.50;nan;98950.50;5038672;28;20992;-63
2021/01/28 10:16:42;;;;;;;18.70;9.43;;;;;;;4.62;nan;98948.59;5043175;28;20482;-61
2021/01/28 10:22:31;;;;;;;23.17;11.70;;;;;;;4.48;nan;98947.16;5044108;28;20543;-63
2021/01/28 10:24:57;;;;;;;24.37;13.47;;;;;;;4.57;nan;98948.16;5058744;28;20460;-62
2021/01/28 10:27:25;;;;;;;28.80;13.20;;;;;;;4.54;nan;98945.78;5051286;28;20574;-62
2021/01/28 10:29:51;;;;;;;27.43;13.20;;;;;;;4.45;nan;98934.19;5041893;28;20485;-62
2021/01/28 10:32:18;;;;;;;24.20;12.93;;;;;;;4.29;nan;98929.38;5049598;28;20556;-63
2021/01/28 10:34:45;;;;;;;18.00;10.97;;;;;;;4.29;nan;98926.75;5050729;28;20472;-62
2021/01/28 10:37:12;;;;;;;22.13;11.10;;;;;;;4.30;nan;98917.81;5050488;28;20469;-63
2021/01/28 10:39:52;;;;;;;17.70;9.90;;;;;;;4.12;nan;98920.25;5055285;28;20510;-63
2021/01/28 10:42:20;;;;;;;18.47;10.33;;;;;;;4.23;nan;98911.38;5051603;28;20477;-63
2021/01/28 10:44:47;;;;;;;14.10;9.67;;;;;;;4.16;nan;98920.81;5052782;28;20538;-63
2021/01/28 10:47:14;;;;;;;18.33;9.60;;;;;;;4.27;nan;98904.03;5049366;28;20511;-63
2021/01/28 10:49:40;;;;;;;18.73;8.80;;;;;;;4.15;nan;98898.84;5052845;28;21025;-63
2021/01/28 10:52:06;;;;;;;20.10;9.50;;;;;;;4.17;nan;98896.06;5053150;28;20469;-62
2021/01/28 10:54:33;;;;;;;13.10;8.73;;;;;;;4.03;nan;98901.69;5057148;28;20987;-61
2021/01/28 10:57:00;;;;;;;15.03;9.00;;;;;;;4.14;nan;98891.03;5057564;28;20521;-62
2021/01/28 10:59:26;;;;;;;16.67;8.30;;;;;;;4.10;nan;98879.88;5061918;28;20453;-62
2021/01/28 11:01:55;;;;;;;14.90;9.30;;;;;;;4.10;nan;98881.69;5049194;28;20488;-62
2021/01/28 11:04:21;;;;;;;16.03;9.27;;;;;;;4.16;nan;98875.88;5053737;28;20469;-62
2021/01/28 11:06:47;;;;;;;15.53;7.97;;;;;;;4.19;nan;98874.78;5052353;28;20484;-62
2021/01/28 11:09:13;;;;;;;17.60;9.40;;;;;;;4.25;nan;98871.56;5048826;28;21011;-62
2021/01/28 11:11:39;;;;;;;14.23;8.83;;;;;;;4.24;nan;98868.09;5046044;28;20465;-62
2021/01/28 11:14:06;;;;;;;16.37;8.90;;;;;;;4.38;nan;98866.06;5055809;28;20599;-62
2021/01/28 11:16:34;;;;;;;15.43;8.83;;;;;;;4.23;nan;98858.47;5061903;28;20492;-62
2021/01/28 11:19:03;;;;;;;18.63;8.60;;;;;;;4.46;nan;98864.41;5062600;28;20463;-62
2021/01/28 11:21:30;;;;;;;14.70;8.00;;;;;;;4.34;nan;98860.22;5057454;28;20480;-62
2021/01/28 11:23:56;;;;;;;20.67;9.70;;;;;;;4.57;nan;98855.50;5052609;28;20460;-63
2021/01/28 11:26:22;;;;;;;15.43;8.33;;;;;;;4.68;nan;98852.72;5048734;28;20477;-64
2021/01/28 11:28:48;;;;;;;17.77;10.20;;;;;;;4.38;nan;98837.78;5053540;28;20464;-64
2021/01/28 11:31:14;;;;;;;15.57;8.50;;;;;;;4.50;nan;98843.81;5047478;28;20477;-62
2021/01/28 11:33:41;;;;;;;15.43;8.97;;;;;;;4.46;nan;98834.44;5049222;28;20456;-65
2021/01/28 11:36:08;;;;;;;15.07;8.67;;;;;;;4.43;nan;98832.94;5050952;28;20489;-65
2021/01/28 11:38:35;;;;;;;16.57;9.73;;;;;;;4.25;nan;98834.53;5050421;28;20445;-62
2021/01/28 11:41:03;;;;;;;16.50;8.53;;;;;;;4.45;nan;98828.31;5051228;28;20538;-63
2021/01/28 11:43:30;;;;;;;14.80;9.00;;;;;;;4.47;nan;98822.91;5051618;28;20452;-63
2021/01/28 11:45:56;;;;;;;13.93;7.93;;;;;;;4.34;nan;98820.53;5058695;28;20547;-63
2021/01/28 11:48:22;;;;;;;14.77;8.57;;;;;;;4.08;nan;98828.94;5058815;28;20815;-63
2021/01/28 11:50:48;;;;;;;13.67;8.07;;;;;;;4.18;nan;98815.72;5055787;28;20476;-63
2021/01/28 11:53:16;;;;;;;13.67;7.73;;;;;;;4.17;nan;98815.84;5038514;28;20450;-63
2021/01/28 11:55:42;;;;;;;11.43;7.47;;;;;;;4.30;nan;98819.09;5054128;28;20915;-63
2021/01/28 11:58:08;;;;;;;17.97;9.20;;;;;;;4.48;nan;98820.13;5059180;28;20568;-64
2021/01/28 12:00:34;;;;;;;13.70;8.73;;;;;;;4.39;nan;98812.16;5054016;28;20484;-63
2021/01/28 12:03:03;;;;;;;14.50;8.53;;;;;;;4.10;nan;98803.19;5046171;28;20487;-64
2021/01/28 12:05:30;;;;;;;14.20;7.87;;;;;;;4.02;nan;98808.31;5055523;28;20468;-63
2021/01/28 12:07:57;;;;;;;11.73;7.60;;;;;;;4.19;nan;98793.59;5054689;28;21013;-64
2021/01/28 12:10:26;;;;;;;11.97;8.27;;;;;;;4.13;nan;98792.34;5057459;28;20484;-64
2021/01/28 12:12:52;;;;;;;13.97;8.80;;;;;;;4.10;nan;98805.84;5044960;28;20960;-63
2021/01/28 12:15:20;;;;;;;13.80;8.57;;;;;;;4.05;nan;98797.47;5054461;28;20460;-64
2021/01/28 12:17:47;;;;;;;11.53;7.20;;;;;;;4.19;nan;98790.13;5047651;28;20456;-64
2021/01/28 12:20:15;;;;;;;13.20;7.40;;;;;;;4.07;nan;98797.34;5056924;28;20476;-62
2021/01/28 12:22:41;;;;;;;11.63;7.37;;;;;;;4.29;nan;98794.47;5058120;28;20485;-62
2021/01/28 12:25:08;;;;;;;9.90;6.50;;;;;;;4.27;nan;98795.56;5053108;28;20454;-63
2021/01/28 12:27:36;;;;;;;11.20;7.10;;;;;;;4.17;nan;98790.25;5055050;28;20503;-64